Lodz, Poland
Current Conditions -  °F | °C
As of 4:30 AM on Sunday 21 Dec 2014 (Local Time) from EPLL Reporting Station
Broken Clouds Broken Clouds  
Wind Chill: 29°   Ceiling: 4000
Heat Index: 37°   Visibility: 6mi
Dew Point: 34°   Wind: 15mph
Humidity: 87%   Direction: 280°W
Pressure: 29.8"   Gusts: 26mph
Location:  51.77°N, 19.46°E
Report Text: EPLL 210230Z 28013G23KT 250V310 9999 SCT017 BKN040CB 03/01 Q1009
Loading
Personal Weather Stations






























Interactive Weather Map New forecast layout! Learn more

10-Day Weather Forecast

Advertisements
Track Severe Weather on mobile